Time;durP1;ratioP1;P1;durP2;ratioP2;P2;SDS_P1;SDS_P2;PMS_P1;PMS_P2;Temp;Humidity;BMP_temperature;BMP_pressure;BME280_temperature;BME280_humidity;BME280_pressure;Samples;Min_cycle;Max_cycle;Signal;HPM_P1;HPM_P2
2021/12/01 00:00:23;;;;;;;6.27;2.33;;;7.40;1.00;;;;;;5055043;28;20466;-57
2021/12/01 00:02:53;;;;;;;5.90;1.83;;;7.30;1.00;;;;;;5057904;28;20192;-56
2021/12/01 00:05:20;;;;;;;10.50;2.20;;;7.20;1.00;;;;;;5061029;28;20971;-58
2021/12/01 00:07:46;;;;;;;3.60;2.10;;;7.30;1.00;;;;;;5064153;28;20544;-55
2021/12/01 00:10:11;;;;;;;5.13;1.90;;;7.50;1.00;;;;;;5063233;28;21040;-55
2021/12/01 00:12:37;;;;;;;6.90;2.27;;;7.50;1.00;;;;;;5061158;28;20651;-58
2021/12/01 00:15:05;;;;;;;9.30;1.90;;;7.30;1.00;;;;;;5056599;28;20425;-56
2021/12/01 00:17:32;;;;;;;4.40;1.50;;;7.30;1.00;;;;;;5057136;28;20589;-57
2021/12/01 00:19:59;;;;;;;6.03;1.30;;;7.40;1.00;;;;;;5053028;28;20450;-57
2021/12/01 00:22:25;;;;;;;5.83;2.57;;;7.30;1.00;;;;;;5066964;28;20816;-56
2021/12/01 00:24:51;;;;;;;7.53;1.83;;;7.40;1.00;;;;;;5054576;28;20510;-56
2021/12/01 00:27:17;;;;;;;6.73;1.90;;;7.30;1.00;;;;;;5054953;28;20433;-56
2021/12/01 00:29:42;;;;;;;13.37;2.07;;;7.30;1.00;;;;;;5055916;28;20838;-56
2021/12/01 00:32:09;;;;;;;6.60;1.80;;;7.20;1.00;;;;;;5051532;28;20765;-56
2021/12/01 00:34:35;;;;;;;9.43;1.67;;;7.20;1.00;;;;;;5052425;28;20933;-56
2021/12/01 00:37:01;;;;;;;3.80;2.00;;;7.30;1.00;;;;;;5054844;28;20792;-55
2021/12/01 00:39:27;;;;;;;7.63;1.53;;;9.70;1.00;;;;;;5058020;28;20450;-58
2021/12/01 00:41:53;;;;;;;6.57;1.53;;;7.20;1.00;;;;;;5051960;28;20263;-56
2021/12/01 00:44:19;;;;;;;5.90;1.60;;;7.20;1.00;;;;;;5057489;28;20219;-57
2021/12/01 00:49:19;;;;;;;5.80;1.63;;;7.30;1.00;;;;;;5063005;28;20534;-57
2021/12/01 00:51:45;;;;;;;8.93;1.70;;;7.40;1.00;;;;;;5056522;28;20517;-57
2021/12/01 00:54:10;;;;;;;5.00;1.60;;;7.30;1.00;;;;;;5056193;28;20196;-56
2021/12/01 00:56:36;;;;;;;12.87;2.13;;;7.30;1.00;;;;;;5058785;28;20238;-57
2021/12/01 00:59:03;;;;;;;11.13;1.70;;;7.40;1.00;;;;;;5060312;28;20614;-56
2021/12/01 01:01:29;;;;;;;6.37;1.50;;;7.40;1.00;;;;;;5057500;28;20983;-56
2021/12/01 01:03:55;;;;;;;5.53;1.33;;;7.30;1.00;;;;;;5050318;28;20450;-56
2021/12/01 01:06:20;;;;;;;5.43;1.70;;;7.50;1.00;;;;;;5057704;28;20446;-58
2021/12/01 01:08:46;;;;;;;5.83;1.20;;;7.50;1.00;;;;;;5058735;28;20253;-56
2021/12/01 01:16:45;;;;;;;7.57;1.90;;;7.40;1.00;;;;;;5057123;28;20464;-55
2021/12/01 01:19:13;;;;;;;3.00;1.37;;;7.30;1.00;;;;;;5059252;28;20442;-57
2021/12/01 01:21:44;;;;;;;6.13;1.33;;;7.40;1.00;;;;;;5059703;28;20181;-55
2021/12/01 01:24:10;;;;;;;6.73;1.50;;;7.30;1.00;;;;;;5048366;28;20881;-56
2021/12/01 01:26:37;;;;;;;6.67;1.50;;;7.40;1.00;;;;;;5052929;28;20557;-56
2021/12/01 01:29:05;;;;;;;4.93;1.47;;;7.40;1.00;;;;;;5056207;28;20438;-56
2021/12/01 01:31:32;;;;;;;4.03;1.20;;;7.30;1.00;;;;;;5062044;28;20437;-63
2021/12/01 01:33:58;;;;;;;3.50;1.00;;;7.40;1.00;;;;;;5055705;28;20449;-58
2021/12/01 01:36:25;;;;;;;9.50;1.80;;;7.50;1.00;;;;;;5061228;28;20935;-56
2021/12/01 01:38:51;;;;;;;11.73;1.70;;;7.60;1.00;;;;;;5053150;28;20524;-56
2021/12/01 01:41:17;;;;;;;6.67;1.20;;;7.70;1.00;;;;;;5061750;28;20446;-57
2021/12/01 01:43:45;;;;;;;2.47;1.03;;;7.70;1.00;;;;;;5051975;28;20863;-59
2021/12/01 01:46:12;;;;;;;5.10;0.87;;;7.60;1.00;;;;;;5061023;28;20445;-56
2021/12/01 01:48:50;;;;;;;8.90;1.70;;;7.70;1.00;;;;;;5056568;28;21031;-57
2021/12/01 01:51:19;;;;;;;5.17;1.23;;;7.70;1.00;;;;;;5057101;28;20456;-56
2021/12/01 01:53:46;;;;;;;3.47;1.30;;;7.70;1.00;;;;;;5051861;28;20504;-57
2021/12/01 01:56:12;;;;;;;5.37;1.60;;;7.70;1.00;;;;;;5059862;28;20459;-56
2021/12/01 01:58:38;;;;;;;6.00;1.47;;;7.60;1.00;;;;;;5059633;28;20469;-57
2021/12/01 02:01:08;;;;;;;3.77;1.13;;;7.70;1.00;;;;;;5059966;28;20442;-57
2021/12/01 02:03:39;;;;;;;2.40;0.90;;;7.70;1.00;;;;;;5051494;28;20230;-55
2021/12/01 02:06:06;;;;;;;3.63;1.07;;;7.80;1.00;;;;;;5063916;28;20500;-56
2021/12/01 02:08:34;;;;;;;5.00;1.03;;;7.80;1.00;;;;;;5056113;28;20520;-57
2021/12/01 02:11:02;;;;;;;3.27;1.70;;;7.90;1.00;;;;;;5050958;28;20849;-58
2021/12/01 02:13:28;;;;;;;3.63;1.77;;;7.80;1.00;;;;;;5050249;28;20772;-56
2021/12/01 02:15:55;;;;;;;7.57;1.63;;;7.80;1.00;;;;;;5058427;28;20431;-57
2021/12/01 02:18:21;;;;;;;2.33;1.20;;;7.80;1.00;;;;;;5061086;28;21037;-58
2021/12/01 02:21:13;;;;;;;7.87;1.30;;;7.70;1.00;;;;;;5057754;28;20517;-55
2021/12/01 02:23:44;;;;;;;4.90;1.20;;;7.80;1.00;;;;;;5054719;28;20441;-57
2021/12/01 02:26:11;;;;;;;5.87;1.50;;;7.80;1.00;;;;;;5060996;28;21032;-56
2021/12/01 02:28:42;;;;;;;4.90;1.00;;;7.90;1.00;;;;;;5052984;28;20752;-58
2021/12/01 02:31:09;;;;;;;5.43;1.60;;;7.80;1.00;;;;;;5052131;28;20450;-59
2021/12/01 02:33:35;;;;;;;3.73;1.10;;;7.80;1.00;;;;;;5051221;28;20428;-57
2021/12/01 02:36:02;;;;;;;1.97;1.30;;;7.80;1.00;;;;;;5055608;28;20438;-58
2021/12/01 02:38:28;;;;;;;2.57;1.03;;;8.00;1.00;;;;;;5058023;28;20473;-55
2021/12/01 02:40:54;;;;;;;10.93;1.93;;;7.90;1.00;;;;;;5057995;28;20442;-57
2021/12/01 02:43:23;;;;;;;5.87;1.80;;;7.90;1.00;;;;;;5052218;28;20449;-56
2021/12/01 02:45:53;;;;;;;10.53;2.07;;;7.90;1.00;;;;;;5052710;28;20457;-58
2021/12/01 02:48:19;;;;;;;2.10;1.20;;;;;;;;;;5063830;28;20525;-57
2021/12/01 02:50:45;;;;;;;4.63;1.43;;;7.90;1.00;;;;;;5054753;28;20429;-56
2021/12/01 02:53:11;;;;;;;4.70;1.43;;;7.90;1.00;;;;;;5059363;28;20910;-56
2021/12/01 02:55:58;;;;;;;4.03;1.17;;;8.00;1.00;;;;;;5060741;28;20534;-57
2021/12/01 02:58:25;;;;;;;7.40;1.33;;;7.90;1.00;;;;;;5056829;28;20871;-57
2021/12/01 03:00:54;;;;;;;2.30;1.53;;;7.90;1.00;;;;;;5067428;28;20959;-56
2021/12/01 03:03:19;;;;;;;4.27;1.63;;;7.80;1.00;;;;;;5058019;28;20453;-57
2021/12/01 03:05:49;;;;;;;4.93;1.40;;;7.70;1.00;;;;;;5057212;28;20952;-56
2021/12/01 03:08:17;;;;;;;5.20;1.53;;;7.80;1.00;;;;;;5063283;28;20959;-57
2021/12/01 03:10:45;;;;;;;8.33;1.57;;;7.60;1.00;;;;;;5061032;28;20450;-56
2021/12/01 03:13:12;;;;;;;3.00;1.37;;;7.70;1.00;;;;;;5048831;28;20482;-57
2021/12/01 03:15:37;;;;;;;6.10;1.07;;;7.70;1.00;;;;;;5064113;28;20465;-56
2021/12/01 03:18:03;;;;;;;6.83;1.47;;;7.80;1.00;;;;;;5051539;28;20452;-58
2021/12/01 03:20:29;;;;;;;7.63;1.80;;;7.70;1.00;;;;;;5057001;28;20204;-57
2021/12/01 03:22:55;;;;;;;3.73;1.10;;;;;;;;;;5060296;28;20211;-57
2021/12/01 03:25:22;;;;;;;4.63;1.30;;;7.50;1.00;;;;;;5058111;28;20212;-58
2021/12/01 03:27:48;;;;;;;6.37;1.73;;;7.50;1.00;;;;;;5057613;28;20991;-56
2021/12/01 03:30:14;;;;;;;2.70;1.20;;;7.40;1.00;;;;;;5055013;28;20462;-57
2021/12/01 03:32:41;;;;;;;5.33;2.50;;;7.40;1.00;;;;;;5053866;28;20485;-56
2021/12/01 03:35:09;;;;;;;4.00;1.50;;;7.50;1.00;;;;;;5059480;28;20200;-57
2021/12/01 03:37:36;;;;;;;7.10;1.70;;;7.50;1.00;;;;;;5058254;28;20484;-59
2021/12/01 03:40:04;;;;;;;4.97;1.93;;;7.50;1.00;;;;;;5056329;28;20906;-55
2021/12/01 03:42:30;;;;;;;3.93;1.90;;;7.40;1.00;;;;;;5063616;28;20793;-55
2021/12/01 03:44:56;;;;;;;4.00;1.40;;;7.40;1.00;;;;;;5055891;28;21762;-56
2021/12/01 03:47:23;;;;;;;5.97;1.47;;;7.30;1.00;;;;;;5063834;28;20214;-55
2021/12/01 03:49:48;;;;;;;3.23;1.20;;;7.40;1.00;;;;;;5057037;28;20455;-57
2021/12/01 03:52:16;;;;;;;3.57;1.47;;;7.30;1.00;;;;;;5055192;28;20426;-56
2021/12/01 03:54:43;;;;;;;4.20;1.67;;;7.40;1.00;;;;;;5046894;28;20195;-56
2021/12/01 03:57:09;;;;;;;6.03;2.47;;;7.30;1.00;;;;;;5057379;28;20500;-56
2021/12/01 03:59:35;;;;;;;3.73;2.13;;;7.30;1.00;;;;;;5054032;28;20536;-56
2021/12/01 04:02:01;;;;;;;4.00;1.30;;;;;;;;;;5050210;28;20493;-54
2021/12/01 04:04:27;;;;;;;2.83;1.90;;;7.30;1.00;;;;;;5056822;28;20196;-56
2021/12/01 04:06:52;;;;;;;3.20;1.83;;;7.30;1.00;;;;;;5057093;28;20929;-55
2021/12/01 04:09:18;;;;;;;2.43;1.90;;;7.30;1.00;;;;;;5056488;28;20185;-55
2021/12/01 04:11:44;;;;;;;4.30;1.60;;;7.30;1.00;;;;;;5051457;28;20181;-56
2021/12/01 04:14:10;;;;;;;4.90;1.93;;;7.30;1.00;;;;;;5050652;28;20482;-57
2021/12/01 04:16:35;;;;;;;3.63;1.63;;;7.30;1.00;;;;;;5061706;28;20258;-59
2021/12/01 04:19:01;;;;;;;2.60;1.50;;;7.20;1.00;;;;;;5056162;28;20204;-58
2021/12/01 04:21:27;;;;;;;4.23;1.97;;;7.30;1.00;;;;;;5054182;28;20229;-56
2021/12/01 04:23:54;;;;;;;4.03;1.80;;;7.30;1.00;;;;;;5059413;28;20180;-56
2021/12/01 04:26:24;;;;;;;2.80;1.77;;;7.30;1.00;;;;;;5058738;28;20474;-56
2021/12/01 04:28:50;;;;;;;2.17;1.50;;;7.30;1.00;;;;;;5049430;28;20804;-56
2021/12/01 04:31:16;;;;;;;5.33;1.80;;;;;;;;;;5048333;28;20503;-56
2021/12/01 04:33:42;;;;;;;7.80;1.90;;;7.30;1.00;;;;;;5049443;28;20456;-58
2021/12/01 04:36:09;;;;;;;4.27;1.87;;;7.40;1.00;;;;;;5045049;28;20532;-58
2021/12/01 04:38:35;;;;;;;2.73;1.67;;;7.30;1.00;;;;;;5043873;28;20260;-56
2021/12/01 04:41:01;;;;;;;3.27;1.80;;;7.30;1.00;;;;;;5043383;28;20919;-55
2021/12/01 04:43:27;;;;;;;3.00;2.40;;;7.30;1.00;;;;;;5044504;28;20434;-57
2021/12/01 04:45:58;;;;;;;5.50;2.00;;;;;;;;;;5044887;28;20443;-56
2021/12/01 04:48:25;;;;;;;3.20;1.83;;;7.30;1.00;;;;;;5046498;28;20215;-56
2021/12/01 04:50:51;;;;;;;1.70;1.60;;;7.30;1.00;;;;;;5061116;28;20987;-55
2021/12/01 04:53:16;;;;;;;1.90;1.70;;;7.20;1.00;;;;;;5060575;28;20488;-55
2021/12/01 04:55:43;;;;;;;3.83;2.13;;;7.10;1.00;;;;;;5058256;28;20179;-56
2021/12/01 04:58:09;;;;;;;7.00;1.73;;;7.10;1.00;;;;;;5057361;28;20231;-58
2021/12/01 05:00:36;;;;;;;2.60;1.60;;;7.10;1.00;;;;;;5061222;28;21764;-59
2021/12/01 05:03:03;;;;;;;2.80;1.30;;;7.20;1.00;;;;;;5055857;28;20497;-57
2021/12/01 05:05:29;;;;;;;4.63;1.70;;;7.20;1.00;;;;;;5060839;28;20449;-58
2021/12/01 05:07:55;;;;;;;5.23;1.57;;;7.20;1.00;;;;;;5054574;28;20446;-58
2021/12/01 05:10:20;;;;;;;8.27;1.70;;;7.30;1.00;;;;;;5057358;28;20180;-58
2021/12/01 05:12:46;;;;;;;4.80;2.17;;;7.20;1.00;;;;;;5058261;28;20451;-57
2021/12/01 05:15:12;;;;;;;2.00;1.73;;;7.30;1.00;;;;;;5059904;28;20196;-57
2021/12/01 05:17:38;;;;;;;1.60;1.40;;;7.30;1.00;;;;;;5056555;28;20215;-57
2021/12/01 05:20:05;;;;;;;2.20;1.60;;;7.30;1.00;;;;;;5057688;28;20498;-57
2021/12/01 05:22:31;;;;;;;6.33;2.07;;;7.30;1.00;;;;;;5056801;28;20541;-56
2021/12/01 05:24:57;;;;;;;2.80;1.80;;;7.30;1.00;;;;;;5054480;28;20797;-58
2021/12/01 05:27:23;;;;;;;2.87;2.07;;;;;;;;;;5054809;28;20584;-58
2021/12/01 05:29:49;;;;;;;3.03;1.30;;;7.40;1.00;;;;;;5060971;28;20184;-56
2021/12/01 05:32:16;;;;;;;3.40;1.97;;;7.50;1.00;;;;;;5056121;28;20447;-58
2021/12/01 05:34:42;;;;;;;6.30;1.90;;;7.40;1.00;;;;;;5059360;28;20281;-57
2021/12/01 05:37:07;;;;;;;2.93;1.43;;;7.30;1.00;;;;;;5062558;28;20545;-59
2021/12/01 05:39:33;;;;;;;1.77;1.67;;;7.40;1.00;;;;;;5060129;28;20626;-58
2021/12/01 05:41:59;;;;;;;3.23;1.87;;;7.30;1.00;;;;;;5050857;28;20233;-57
2021/12/01 05:44:26;;;;;;;3.53;2.27;;;7.30;1.00;;;;;;5059582;28;20184;-56
2021/12/01 05:46:52;;;;;;;3.00;1.73;;;7.40;1.00;;;;;;5057480;28;20465;-56
2021/12/01 05:49:18;;;;;;;3.43;2.30;;;;;;;;;;5049360;28;20521;-57
2021/12/01 05:51:44;;;;;;;2.60;2.20;;;;;;;;;;5066381;28;20469;-59
2021/12/01 05:54:11;;;;;;;3.17;2.00;;;7.40;1.00;;;;;;5053036;28;20961;-56
2021/12/01 05:56:37;;;;;;;2.77;2.33;;;7.30;1.00;;;;;;5059332;28;20450;-57
2021/12/01 05:59:02;;;;;;;2.60;1.67;;;8.50;1.00;;;;;;5063530;28;20521;-57
2021/12/01 06:01:28;;;;;;;5.30;1.90;;;7.40;1.00;;;;;;5061383;28;20412;-56
2021/12/01 06:03:54;;;;;;;2.00;1.80;;;7.40;1.00;;;;;;5056686;28;20202;-56
2021/12/01 06:06:19;;;;;;;3.63;2.03;;;7.40;1.00;;;;;;5061973;28;20556;-57
2021/12/01 06:08:45;;;;;;;2.93;1.93;;;7.40;1.00;;;;;;5060165;28;20655;-57
2021/12/01 06:11:11;;;;;;;5.70;1.77;;;7.50;1.00;;;;;;5057661;28;20206;-57
2021/12/01 06:13:37;;;;;;;5.47;2.33;;;7.50;1.00;;;;;;5052273;28;20210;-57
2021/12/01 06:16:03;;;;;;;2.47;2.00;;;7.50;1.00;;;;;;5052211;28;20183;-58
2021/12/01 06:18:30;;;;;;;3.97;2.00;;;7.40;1.00;;;;;;5056127;28;20462;-56
2021/12/01 06:20:57;;;;;;;2.70;1.70;;;7.50;1.00;;;;;;5064134;28;20543;-57
2021/12/01 06:23:23;;;;;;;2.70;1.50;;;7.40;1.00;;;;;;5054335;28;20487;-57
2021/12/01 06:25:49;;;;;;;3.00;1.80;;;7.40;1.00;;;;;;5063785;28;20468;-57
2021/12/01 06:28:14;;;;;;;4.00;2.13;;;7.50;1.00;;;;;;5053228;28;20485;-56
2021/12/01 06:30:40;;;;;;;2.47;2.27;;;7.50;1.00;;;;;;5064645;28;20608;-57
2021/12/01 06:33:06;;;;;;;2.77;1.77;;;7.10;1.00;;;;;;5064922;28;20238;-58
2021/12/01 06:35:33;;;;;;;4.47;2.00;;;7.50;1.00;;;;;;5054883;28;20835;-58
2021/12/01 06:38:00;;;;;;;1.60;1.33;;;7.50;1.00;;;;;;5070819;28;20204;-57
2021/12/01 06:40:28;;;;;;;1.50;1.40;;;7.60;1.00;;;;;;5065928;28;20476;-59
2021/12/01 06:42:54;;;;;;;5.37;4.20;;;7.70;1.00;;;;;;5041823;28;20421;-59
2021/12/01 06:45:20;;;;;;;2.07;1.30;;;7.80;1.00;;;;;;5054559;28;20774;-56
2021/12/01 06:47:46;;;;;;;2.07;1.60;;;;;;;;;;5055608;28;20496;-58
2021/12/01 06:50:13;;;;;;;0.97;0.90;;;7.80;1.00;;;;;;5063767;28;20960;-56
2021/12/01 06:52:39;;;;;;;1.43;0.83;;;7.80;1.00;;;;;;5065677;28;20488;-57
2021/12/01 06:55:08;;;;;;;1.73;1.07;;;7.90;1.00;;;;;;5065322;28;20413;-56
2021/12/01 06:57:33;;;;;;;0.90;0.77;;;7.90;1.00;;;;;;5063318;28;20203;-57
2021/12/01 07:00:00;;;;;;;1.57;0.80;;;7.90;1.00;;;;;;5062526;28;20472;-57
2021/12/01 07:02:26;;;;;;;1.40;1.30;;;8.00;1.00;;;;;;5070594;28;20438;-59
2021/12/01 07:04:51;;;;;;;2.17;1.43;;;8.10;1.00;;;;;;5069024;28;20474;-58
2021/12/01 07:07:17;;;;;;;1.50;1.00;;;8.20;1.00;;;;;;5065610;28;20465;-57
2021/12/01 07:09:45;;;;;;;0.90;0.70;;;8.40;1.00;;;;;;5054653;28;20169;-57
2021/12/01 07:12:12;;;;;;;2.00;0.87;;;8.40;1.00;;;;;;5057763;28;20184;-57
2021/12/01 07:14:37;;;;;;;0.70;0.70;;;8.30;1.00;;;;;;5060989;28;20438;-58
2021/12/01 07:17:05;;;;;;;0.60;0.53;;;8.30;1.00;;;;;;5062553;28;20442;-57
2021/12/01 07:19:31;;;;;;;0.90;0.70;;;8.30;1.00;;;;;;5064493;28;20234;-58
2021/12/01 07:21:56;;;;;;;1.67;1.03;;;8.50;1.00;;;;;;5056943;28;20417;-58
2021/12/01 07:24:22;;;;;;;0.70;0.40;;;8.40;1.00;;;;;;5055833;28;20628;-59
2021/12/01 07:26:47;;;;;;;2.70;0.90;;;8.40;1.00;;;;;;5056543;28;20232;-58
2021/12/01 07:29:13;;;;;;;0.87;0.80;;;8.40;1.00;;;;;;5065918;28;20184;-58
2021/12/01 07:31:39;;;;;;;1.30;1.20;;;8.50;1.00;;;;;;5067083;28;20196;-58
2021/12/01 07:34:05;;;;;;;0.63;0.63;;;;;;;;;;5057663;28;20641;-58
2021/12/01 07:36:30;;;;;;;0.93;0.80;;;8.30;1.00;;;;;;5050615;28;20215;-59
2021/12/01 07:38:58;;;;;;;1.30;1.00;;;8.20;1.00;;;;;;5057334;28;20462;-60
2021/12/01 07:41:24;;;;;;;0.70;0.70;;;8.20;1.00;;;;;;5051256;28;20315;-60
2021/12/01 07:43:50;;;;;;;2.37;1.30;;;;;;;;;;5068851;28;20434;-59
2021/12/01 07:46:16;;;;;;;1.57;1.00;;;8.10;1.00;;;;;;5063961;28;20844;-58
2021/12/01 07:48:42;;;;;;;2.17;1.27;;;8.10;1.00;;;;;;5053781;28;20474;-59
2021/12/01 07:51:07;;;;;;;1.63;1.00;;;8.20;1.00;;;;;;5052303;28;20283;-58
2021/12/01 07:53:33;;;;;;;2.33;1.53;;;8.20;1.00;;;;;;5069336;28;20590;-57
2021/12/01 07:56:02;;;;;;;2.77;1.83;;;8.20;1.00;;;;;;5065160;28;20188;-58
2021/12/01 07:58:27;;;;;;;2.30;1.00;;;8.20;1.00;;;;;;5059949;28;20602;-58
2021/12/01 08:00:53;;;;;;;1.53;1.10;;;8.20;1.00;;;;;;5053973;28;20447;-59
2021/12/01 08:03:18;;;;;;;2.73;1.00;;;8.20;1.00;;;;;;5066791;28;20237;-59
2021/12/01 08:05:44;;;;;;;0.83;0.73;;;8.30;1.00;;;;;;5056413;28;20230;-58
2021/12/01 08:08:10;;;;;;;4.77;2.10;;;8.50;1.00;;;;;;5052142;28;20614;-59
2021/12/01 08:10:37;;;;;;;3.20;2.30;;;8.50;1.00;;;;;;5059757;28;20637;-58
2021/12/01 08:13:04;;;;;;;1.67;1.50;;;8.60;1.00;;;;;;5057118;28;20943;-58
2021/12/01 08:15:29;;;;;;;2.20;1.70;;;8.60;1.00;;;;;;5051836;28;20410;-59
2021/12/01 08:17:55;;;;;;;1.80;1.13;;;;;;;;;;5068260;28;20553;-59
2021/12/01 08:20:22;;;;;;;1.30;1.20;;;8.60;1.00;;;;;;5071956;28;20179;-58
2021/12/01 08:22:48;;;;;;;1.13;1.03;;;8.60;1.00;;;;;;5052623;28;20410;-57
2021/12/01 08:25:14;;;;;;;0.90;0.90;;;8.50;1.00;;;;;;5049237;28;20493;-59
2021/12/01 08:27:40;;;;;;;3.20;1.00;;;8.60;1.00;;;;;;5052583;28;20438;-59
2021/12/01 08:30:07;;;;;;;3.40;1.43;;;8.70;1.00;;;;;;5061850;28;20412;-58
2021/12/01 08:32:33;;;;;;;1.07;0.97;;;8.70;1.00;;;;;;5057634;28;20475;-60
2021/12/01 08:34:59;;;;;;;1.93;1.00;;;8.70;1.00;;;;;;5056874;28;20443;-58
2021/12/01 08:37:25;;;;;;;1.27;1.17;;;8.70;1.00;;;;;;5058977;28;20531;-57
2021/12/01 08:39:51;;;;;;;1.60;1.20;;;8.80;1.00;;;;;;5063716;28;20431;-59
2021/12/01 08:42:22;;;;;;;0.83;0.83;;;8.80;1.00;;;;;;5057228;28;20196;-61
2021/12/01 08:44:50;;;;;;;1.23;1.13;;;8.70;1.00;;;;;;5071198;28;20487;-59
2021/12/01 08:47:20;;;;;;;1.30;1.20;;;8.70;1.00;;;;;;5057320;28;20926;-58
2021/12/01 08:49:46;;;;;;;1.80;1.10;;;9.00;1.00;;;;;;5058664;28;20456;-59
2021/12/01 08:52:12;;;;;;;1.43;1.30;;;8.90;1.00;;;;;;5057038;28;21028;-58
2021/12/01 08:54:38;;;;;;;2.23;1.67;;;8.90;1.00;;;;;;5055261;28;20451;-58
2021/12/01 08:57:04;;;;;;;1.37;1.00;;;8.90;1.00;;;;;;5058354;28;20279;-57
2021/12/01 08:59:31;;;;;;;1.33;1.13;;;8.90;1.00;;;;;;5071158;28;20419;-58
2021/12/01 09:01:57;;;;;;;2.20;0.80;;;8.90;1.00;;;;;;5054056;28;20443;-59
2021/12/01 09:04:22;;;;;;;0.80;0.80;;;9.00;1.00;;;;;;5049814;28;20452;-58
2021/12/01 09:06:48;;;;;;;1.13;1.03;;;9.00;1.00;;;;;;5057393;28;20191;-58
2021/12/01 09:09:20;;;;;;;7.17;6.03;;;9.10;1.00;;;;;;5050267;28;20192;-57
2021/12/01 09:11:48;;;;;;;1.30;1.20;;;9.10;1.00;;;;;;5057721;28;20893;-58
2021/12/01 09:14:14;;;;;;;3.63;1.17;;;9.10;1.00;;;;;;5060923;28;20438;-60
2021/12/01 09:16:45;;;;;;;1.53;0.97;;;9.00;1.00;;;;;;5051219;28;20533;-60
2021/12/01 09:19:11;;;;;;;3.53;1.87;;;8.90;1.00;;;;;;5051653;28;20465;-58
2021/12/01 09:21:37;;;;;;;1.83;1.00;;;8.90;1.00;;;;;;5051349;28;20452;-58
2021/12/01 09:24:04;;;;;;;1.23;1.10;;;8.90;1.00;;;;;;5053437;28;20462;-59
2021/12/01 09:26:32;;;;;;;4.33;3.93;;;9.00;1.00;;;;;;5051776;28;20467;-59
2021/12/01 09:28:58;;;;;;;4.37;1.97;;;9.00;1.00;;;;;;5050179;28;20422;-58
2021/12/01 09:31:25;;;;;;;2.00;1.40;;;9.10;1.00;;;;;;5050501;28;20463;-58
2021/12/01 09:33:51;;;;;;;3.33;1.90;;;9.10;1.00;;;;;;5060342;28;20495;-59
2021/12/01 09:36:16;;;;;;;2.20;1.30;;;9.10;1.00;;;;;;5050086;28;20995;-60
2021/12/01 09:38:43;;;;;;;1.57;0.90;;;9.10;1.00;;;;;;5049977;28;20561;-60
2021/12/01 09:41:10;;;;;;;1.50;1.20;;;9.30;1.00;;;;;;5051262;28;20237;-59
2021/12/01 09:43:36;;;;;;;1.27;1.10;;;9.40;1.00;;;;;;5049221;28;20447;-59
2021/12/01 09:46:04;;;;;;;0.80;0.80;;;9.40;1.00;;;;;;5050042;28;20443;-58
2021/12/01 09:48:31;;;;;;;1.20;1.10;;;9.60;1.00;;;;;;5049230;28;20478;-60
2021/12/01 09:50:57;;;;;;;0.70;0.70;;;9.70;1.00;;;;;;5062956;28;20456;-59
2021/12/01 09:53:22;;;;;;;1.07;0.93;;;10.00;1.00;;;;;;5049879;28;20475;-59
2021/12/01 09:55:48;;;;;;;1.20;0.83;;;9.90;1.00;;;;;;5049321;28;20435;-61
2021/12/01 09:58:17;;;;;;;1.80;1.20;;;10.00;1.00;;;;;;5049634;28;20230;-62
2021/12/01 10:00:46;;;;;;;0.93;0.83;;;10.10;1.00;;;;;;5050229;28;20185;-58
2021/12/01 10:03:12;;;;;;;1.63;1.00;;;10.00;1.00;;;;;;5047510;28;20863;-60
2021/12/01 10:06:04;;;;;;;3.63;1.53;;;10.20;1.00;;;;;;5048071;28;20424;-60
2021/12/01 10:08:49;;;;;;;1.97;0.93;;;10.20;1.00;;;;;;5053521;28;20503;-58
2021/12/01 10:11:24;;;;;;;2.03;1.10;;;10.20;1.00;;;;;;5049195;28;21042;-59
2021/12/01 10:13:57;;;;;;;1.63;1.00;;;10.30;1.00;;;;;;5048879;28;20540;-60
2021/12/01 10:16:28;;;;;;;2.30;0.77;;;10.30;1.00;;;;;;5051644;28;20801;-59
2021/12/01 10:18:57;;;;;;;2.87;1.00;;;10.30;1.00;;;;;;5049575;28;20433;-59
2021/12/01 10:21:43;;;;;;;0.80;0.63;;;10.40;1.00;;;;;;5049685;28;20465;-60
2021/12/01 10:24:10;;;;;;;0.73;0.60;;;10.60;1.00;;;;;;5062800;28;20393;-60
2021/12/01 10:26:50;;;;;;;2.90;0.97;;;10.60;1.00;;;;;;5064894;28;20440;-59
2021/12/01 10:29:23;;;;;;;1.07;0.67;;;10.40;1.00;;;;;;5051303;28;20492;-59
2021/12/01 10:32:06;;;;;;;2.50;0.80;;;10.30;1.00;;;;;;5057339;28;20432;-59
2021/12/01 10:35:06;;;;;;;0.80;0.70;;;10.20;1.00;;;;;;5048883;28;20793;-60
2021/12/01 10:37:33;;;;;;;1.53;0.87;;;10.30;1.00;;;;;;5024348;28;20480;-57
2021/12/01 10:40:21;;;;;;;0.80;0.80;;;10.20;1.00;;;;;;5054424;28;20537;-58
2021/12/01 10:42:53;;;;;;;5.33;0.57;;;10.10;1.00;;;;;;5053476;28;20467;-59
2021/12/01 10:45:20;;;;;;;0.47;0.47;;;10.20;1.00;;;;;;5063802;28;20446;-59
2021/12/01 10:47:46;;;;;;;0.80;0.63;;;10.20;1.00;;;;;;5056978;28;20423;-59
2021/12/01 10:50:16;;;;;;;1.37;0.60;;;10.30;1.00;;;;;;5049344;28;20410;-58
2021/12/01 10:52:51;;;;;;;0.50;0.50;;;10.20;1.00;;;;;;5051274;28;20250;-61
2021/12/01 10:55:26;;;;;;;0.70;0.60;;;10.20;1.00;;;;;;5051880;28;20420;-59
2021/12/01 10:57:55;;;;;;;0.60;0.60;;;10.10;1.00;;;;;;5059239;28;20511;-59
2021/12/01 11:00:26;;;;;;;0.63;0.50;;;10.20;1.00;;;;;;5069749;28;20430;-59
2021/12/01 11:03:12;;;;;;;0.50;0.50;;;10.20;1.00;;;;;;5061430;28;20438;-58
2021/12/01 11:05:53;;;;;;;0.80;0.80;;;10.20;1.00;;;;;;5068859;28;20932;-61
2021/12/01 11:08:21;;;;;;;2.27;0.67;;;10.30;1.00;;;;;;5068281;28;20526;-60
2021/12/01 11:11:06;;;;;;;1.13;0.50;;;10.40;1.00;;;;;;5069366;28;20783;-58
2021/12/01 11:13:32;;;;;;;0.90;0.60;;;10.30;1.00;;;;;;5069918;28;20438;-60
2021/12/01 11:16:04;;;;;;;0.53;0.53;;;10.30;1.00;;;;;;5063039;28;20836;-60
2021/12/01 11:18:32;;;;;;;0.50;0.50;;;10.50;1.00;;;;;;5052845;28;20487;-57
2021/12/01 11:21:02;;;;;;;1.23;0.60;;;10.40;1.00;;;;;;5062451;28;20792;-60
2021/12/01 11:23:34;;;;;;;1.13;0.50;;;10.40;1.00;;;;;;5072924;28;20438;-60
2021/12/01 11:26:11;;;;;;;0.60;0.60;;;10.50;1.00;;;;;;5071945;28;20448;-58
2021/12/01 11:28:40;;;;;;;1.43;0.50;;;10.50;1.00;;;;;;5052912;28;20457;-58
2021/12/01 11:31:18;;;;;;;1.13;0.90;;;10.30;1.00;;;;;;5052333;28;20443;-59
2021/12/01 11:33:44;;;;;;;0.80;0.80;;;10.10;1.00;;;;;;5052724;28;20736;-59
2021/12/01 11:36:13;;;;;;;4.00;0.80;;;10.30;1.00;;;;;;5052302;28;20523;-57
2021/12/01 11:38:39;;;;;;;4.30;0.57;;;10.10;1.00;;;;;;5052911;28;20441;-58
2021/12/01 11:41:06;;;;;;;0.83;0.70;;;10.00;1.00;;;;;;5052351;28;20460;-59
2021/12/01 11:43:34;;;;;;;0.53;0.50;;;10.20;1.00;;;;;;5052731;28;20847;-61
2021/12/01 11:46:00;;;;;;;1.00;0.77;;;;;;;;;;5052559;28;20481;-60
2021/12/01 11:48:30;;;;;;;0.83;0.60;;;10.20;1.00;;;;;;5052348;28;20513;-60
2021/12/01 11:51:33;;;;;;;0.90;0.90;;;10.20;1.00;;;;;;5052276;28;20952;-58
2021/12/01 11:54:09;;;;;;;1.07;0.90;;;10.20;1.00;;;;;;5045048;28;20432;-58
2021/12/01 11:56:37;;;;;;;0.97;0.87;;;10.20;1.00;;;;;;5052652;28;20417;-61
2021/12/01 11:59:20;;;;;;;1.43;1.10;;;10.30;1.00;;;;;;5053868;28;20948;-58
2021/12/01 12:01:51;;;;;;;1.57;0.70;;;10.30;1.00;;;;;;5062923;28;20435;-59
2021/12/01 12:04:18;;;;;;;0.73;0.70;;;10.50;1.00;;;;;;5052107;28;20430;-58
2021/12/01 12:06:46;;;;;;;0.93;0.60;;;10.50;1.00;;;;;;5052403;28;20435;-59
2021/12/01 12:09:15;;;;;;;1.03;0.70;;;10.50;1.00;;;;;;5052358;28;20409;-59
2021/12/01 12:12:05;;;;;;;0.73;0.73;;;10.70;1.00;;;;;;5052347;28;20418;-60
2021/12/01 12:14:33;;;;;;;0.70;0.60;;;10.90;1.00;;;;;;5051921;28;20533;-58
2021/12/01 12:17:07;;;;;;;0.70;0.70;;;10.90;1.00;;;;;;5052100;28;20417;-61
2021/12/01 12:19:44;;;;;;;1.10;0.80;;;10.80;1.00;;;;;;5052092;28;20526;-59
2021/12/01 12:22:39;;;;;;;0.70;0.70;;;10.80;1.00;;;;;;5051556;28;20402;-60
2021/12/01 12:25:08;;;;;;;2.30;0.60;;;10.80;1.00;;;;;;5051206;28;20454;-58
2021/12/01 12:27:46;;;;;;;0.70;0.60;;;10.70;1.00;;;;;;5049299;28;20497;-59
2021/12/01 12:30:12;;;;;;;0.60;0.60;;;10.60;1.00;;;;;;5052088;28;20439;-58
2021/12/01 12:32:40;;;;;;;0.70;0.70;;;10.70;1.00;;;;;;5051719;28;20466;-61
2021/12/01 12:35:17;;;;;;;1.67;0.83;;;10.80;1.00;;;;;;5050437;28;20195;-58
2021/12/01 12:37:43;;;;;;;0.50;0.50;;;10.70;1.00;;;;;;5065788;28;20546;-59
2021/12/01 12:40:12;;;;;;;1.00;0.70;;;10.80;1.00;;;;;;5051449;28;20431;-59
2021/12/01 12:43:09;;;;;;;0.70;0.70;;;10.80;1.00;;;;;;5051603;28;20456;-59
2021/12/01 12:45:37;;;;;;;1.27;1.10;;;10.70;1.00;;;;;;5054862;28;20416;-57
2021/12/01 12:48:23;;;;;;;2.70;2.17;;;10.70;1.00;;;;;;5071568;28;20480;-59
2021/12/01 12:51:12;;;;;;;1.63;0.90;;;10.80;1.00;;;;;;5071086;28;20530;-59
2021/12/01 12:54:00;;;;;;;1.80;0.70;;;10.70;1.00;;;;;;5057548;28;20869;-60
2021/12/01 12:56:31;;;;;;;4.37;2.70;;;10.70;1.00;;;;;;5051297;28;20796;-59
2021/12/01 12:59:19;;;;;;;2.97;1.07;;;10.70;1.00;;;;;;5050011;28;20487;-59
2021/12/01 13:01:45;;;;;;;0.70;0.60;;;10.90;1.00;;;;;;5051095;28;20435;-59
2021/12/01 13:07:35;;;;;;;1.70;0.93;;;11.00;1.00;;;;;;5050916;28;20451;-59
2021/12/01 13:10:05;;;;;;;1.93;0.63;;;11.10;1.00;;;;;;5047322;28;20434;-58
2021/12/01 13:13:03;;;;;;;0.50;0.50;;;10.80;1.00;;;;;;5051979;28;20439;-59
2021/12/01 13:15:33;;;;;;;0.83;0.70;;;10.80;1.00;;;;;;5070456;28;20898;-61
2021/12/01 13:18:06;;;;;;;1.30;0.83;;;10.70;1.00;;;;;;5070484;28;20467;-60
2021/12/01 13:20:41;;;;;;;0.60;0.60;;;11.00;1.00;;;;;;5070644;28;20421;-61
2021/12/01 13:23:13;;;;;;;2.97;0.77;;;10.90;1.00;;;;;;5070746;28;20448;-60
2021/12/01 13:25:41;;;;;;;1.37;0.80;;;11.00;1.00;;;;;;5070555;28;20847;-60